createdAt,value
2022-11-24T00:00:04.367Z,1.42
2022-11-24T00:02:35.584Z,1.34
2022-11-24T00:05:08.013Z,1.37
2022-11-24T00:07:38.496Z,1.42
2022-11-24T00:10:09.224Z,1.46
2022-11-24T00:12:39.572Z,1.44
2022-11-24T00:15:10.437Z,1.42
2022-11-24T00:17:41.287Z,1.37
2022-11-24T00:20:12.052Z,1.34
2022-11-24T00:22:42.511Z,1.37
2022-11-24T00:25:12.888Z,1.33
2022-11-24T00:27:43.367Z,1.39
2022-11-24T00:30:14.150Z,1.43
2022-11-24T00:32:44.517Z,1.32
2022-11-24T00:35:15.125Z,1.41
2022-11-24T00:37:45.715Z,1.33
2022-11-24T00:40:16.274Z,1.37
2022-11-24T00:42:46.650Z,1.40
2022-11-24T00:45:17.159Z,1.32
2022-11-24T00:47:47.597Z,1.38
2022-11-24T00:50:18.199Z,1.40
2022-11-24T00:52:48.514Z,1.44
2022-11-24T00:55:23.219Z,1.47
2022-11-24T00:57:59.261Z,1.44
2022-11-24T01:00:29.819Z,1.49
2022-11-24T01:03:03.166Z,1.47
2022-11-24T01:05:37.380Z,1.37
2022-11-24T01:08:08.341Z,1.38
2022-11-24T01:10:38.847Z,1.35
2022-11-24T01:13:09.496Z,1.35
2022-11-24T01:15:40.186Z,1.30
2022-11-24T01:18:10.686Z,1.38
2022-11-24T01:20:41.056Z,1.41
2022-11-24T01:23:11.490Z,1.34
2022-11-24T01:25:41.879Z,1.40
2022-11-24T01:28:12.322Z,1.36
2022-11-24T01:30:42.748Z,1.38
2022-11-24T01:33:13.233Z,1.45
2022-11-24T01:35:43.578Z,1.46
2022-11-24T01:38:13.968Z,1.43
2022-11-24T01:40:44.515Z,1.52
2022-11-24T01:43:20.380Z,1.47
2022-11-24T01:45:51.328Z,1.46
2022-11-24T01:48:28.256Z,1.50
2022-11-24T01:51:21.737Z,1.51
2022-11-24T01:53:57.273Z,1.47
2022-11-24T01:56:29.021Z,1.38
2022-11-24T01:59:02.988Z,1.44
2022-11-24T02:01:33.565Z,1.45
2022-11-24T02:04:07.131Z,1.39
2022-11-24T02:06:38.773Z,1.55
2022-11-24T02:09:20.169Z,1.46
2022-11-24T02:11:52.262Z,1.55
2022-11-24T02:14:24.278Z,1.56
2022-11-24T02:16:55.042Z,1.60
2022-11-24T02:19:33.610Z,1.61
2022-11-24T02:22:05.008Z,1.55
2022-11-24T02:24:45.275Z,1.55
2022-11-24T02:27:16.103Z,1.49
2022-11-24T02:29:46.962Z,1.56
2022-11-24T02:32:18.681Z,1.50
2022-11-24T02:34:49.159Z,1.59
2022-11-24T02:37:19.648Z,1.57
2022-11-24T02:39:50.017Z,1.53
2022-11-24T02:42:20.587Z,1.61
2022-11-24T02:44:57.161Z,1.61
2022-11-24T02:47:27.783Z,1.59
2022-11-24T02:49:59.464Z,1.54
2022-11-24T02:52:29.913Z,1.60
2022-11-24T02:55:00.266Z,1.51
2022-11-24T02:57:31.129Z,1.58
2022-11-24T03:00:01.618Z,1.50
2022-11-24T03:02:32.239Z,1.53
2022-11-24T03:05:02.726Z,1.58
2022-11-24T03:07:33.233Z,1.54
2022-11-24T03:10:04.577Z,1.64
2022-11-24T03:12:35.031Z,1.54
2022-11-24T03:15:06.386Z,1.41
2022-11-24T03:17:36.877Z,1.06
2022-11-24T03:20:08.050Z,1.41
2022-11-24T03:22:38.435Z,1.36
2022-11-24T03:25:09.230Z,1.33
2022-11-24T03:27:39.673Z,1.31
2022-11-24T03:30:11.211Z,1.20
2022-11-24T03:32:42.387Z,1.08
2022-11-24T03:35:13.071Z,1.25
2022-11-24T03:37:43.674Z,1.39
2022-11-24T03:40:14.246Z,1.26
2022-11-24T03:42:44.624Z,1.30
2022-11-24T03:45:45.502Z,1.27
2022-11-24T03:48:06.359Z,1.38
2022-11-24T03:50:36.759Z,1.36
2022-11-24T03:53:07.267Z,1.37
2022-11-24T03:55:37.646Z,1.34
2022-11-24T03:58:08.066Z,1.39
2022-11-24T04:00:38.426Z,1.21
2022-11-24T04:03:09.330Z,1.33
2022-11-24T04:05:39.832Z,1.33
2022-11-24T04:08:10.257Z,1.40
2022-11-24T04:10:41.127Z,1.42
2022-11-24T04:13:16.956Z,1.32
2022-11-24T04:15:47.478Z,1.34
2022-11-24T04:18:18.036Z,1.35
2022-11-24T04:20:52.515Z,1.32
2022-11-24T04:23:23.134Z,1.31
2022-11-24T04:25:53.578Z,1.21
2022-11-24T04:28:23.926Z,1.30
2022-11-24T04:30:54.357Z,1.19
2022-11-24T04:33:24.711Z,1.15
2022-11-24T04:35:58.219Z,1.27
2022-11-24T04:39:19.396Z,1.29
2022-11-24T04:41:23.198Z,1.32
2022-11-24T04:43:53.568Z,1.20
2022-11-24T04:46:24.024Z,1.33
2022-11-24T04:48:54.440Z,1.36
2022-11-24T04:51:24.888Z,1.39
2022-11-24T04:53:55.355Z,1.38
2022-11-24T04:56:25.767Z,1.33
2022-11-24T04:58:56.408Z,1.09
2022-11-24T05:01:27.467Z,1.24
2022-11-24T05:03:58.917Z,1.09
2022-11-24T05:06:29.441Z,1.36
2022-11-24T05:08:59.753Z,1.28
2022-11-24T05:11:30.086Z,1.36
2022-11-24T05:14:01.137Z,1.38
2022-11-24T05:16:31.488Z,1.33
2022-11-24T05:19:01.886Z,1.25
2022-11-24T05:21:32.277Z,1.36
2022-11-24T05:24:02.968Z,1.34
2022-11-24T05:26:33.443Z,1.39
2022-11-24T05:29:04.048Z,1.40
2022-11-24T05:31:34.438Z,1.42
2022-11-24T05:34:04.854Z,1.42
2022-11-24T05:36:53.200Z,1.34
2022-11-24T05:39:23.523Z,1.31
2022-11-24T05:41:53.891Z,1.39
2022-11-24T05:44:24.483Z,1.30
2022-11-24T05:46:54.856Z,1.32
2022-11-24T05:49:25.500Z,1.34
2022-11-24T05:51:55.818Z,1.39
2022-11-24T05:54:26.013Z,1.28
2022-11-24T05:56:56.762Z,1.35
2022-11-24T05:59:26.976Z,1.35
2022-11-24T06:01:57.125Z,1.28
2022-11-24T06:04:27.383Z,1.35
2022-11-24T06:06:57.636Z,1.30
2022-11-24T06:09:27.910Z,1.39
2022-11-24T06:11:58.096Z,1.30
2022-11-24T06:14:28.279Z,1.30
2022-11-24T06:16:58.555Z,1.37
2022-11-24T06:19:28.969Z,1.37
2022-11-24T06:21:59.501Z,1.28
2022-11-24T06:24:29.788Z,1.35
2022-11-24T06:27:00.698Z,1.23
2022-11-24T06:29:30.835Z,1.31
2022-11-24T06:32:01.097Z,1.26
2022-11-24T06:34:31.459Z,1.41
2022-11-24T06:37:01.762Z,1.35
2022-11-24T06:39:31.901Z,1.39
2022-11-24T06:42:02.057Z,1.47
2022-11-24T06:44:32.573Z,1.41
2022-11-24T06:47:03.066Z,1.51
2022-11-24T06:49:33.245Z,1.48
2022-11-24T06:52:03.405Z,1.38
2022-11-24T06:54:34.214Z,1.43
2022-11-24T06:57:04.562Z,1.41
2022-11-24T06:59:35.141Z,1.55
2022-11-24T07:02:05.225Z,1.47
2022-11-24T07:04:35.542Z,1.55
2022-11-24T07:07:05.836Z,1.58
2022-11-24T07:09:35.973Z,1.57
2022-11-24T07:12:06.525Z,1.55
2022-11-24T07:14:37.150Z,1.42
2022-11-24T07:17:07.730Z,1.46
2022-11-24T07:19:38.131Z,1.46
2022-11-24T07:22:08.442Z,1.46
2022-11-24T07:24:39.015Z,1.47
2022-11-24T07:27:10.713Z,1.49
2022-11-24T07:29:41.061Z,1.44
2022-11-24T07:32:11.693Z,1.45
2022-11-24T07:34:41.884Z,1.58
2022-11-24T07:37:12.074Z,1.60
2022-11-24T07:39:42.259Z,1.47
2022-11-24T07:42:12.640Z,1.46
2022-11-24T07:44:42.796Z,1.53
2022-11-24T07:47:12.888Z,1.58
2022-11-24T07:49:42.991Z,1.59
2022-11-24T07:52:13.067Z,1.63
2022-11-24T07:54:43.305Z,1.61
2022-11-24T07:57:13.439Z,1.65
2022-11-24T07:59:43.671Z,1.67
2022-11-24T08:02:13.766Z,1.50
2022-11-24T08:04:44.004Z,1.51
2022-11-24T08:07:14.365Z,1.62
2022-11-24T08:09:44.599Z,1.51
2022-11-24T08:12:16.653Z,1.65
2022-11-24T08:14:50.709Z,1.62
2022-11-24T08:17:23.038Z,1.71
2022-11-24T08:19:59.694Z,1.72
2022-11-24T08:22:29.852Z,1.75
2022-11-24T08:24:59.971Z,1.72
2022-11-24T08:27:30.955Z,1.74
2022-11-24T08:30:01.159Z,1.71
2022-11-24T08:32:31.358Z,1.71
2022-11-24T08:35:13.338Z,1.84
2022-11-24T08:37:44.638Z,1.84
2022-11-24T08:40:14.877Z,1.83
2022-11-24T08:42:45.130Z,1.71
2022-11-24T08:45:21.070Z,1.81
2022-11-24T08:47:56.341Z,1.85
2022-11-24T08:50:30.884Z,1.88
2022-11-24T08:53:01.047Z,1.86
2022-11-24T08:55:31.187Z,1.85
2022-11-24T08:58:01.305Z,1.93
2022-11-24T09:00:31.398Z,1.92
2022-11-24T09:03:09.433Z,2.02
2022-11-24T09:05:54.706Z,2.01
2022-11-24T09:08:24.866Z,1.92
2022-11-24T09:11:03.016Z,1.99
2022-11-24T09:13:33.749Z,1.93
2022-11-24T09:16:09.140Z,2.01
2022-11-24T09:18:39.990Z,2.04
2022-11-24T09:21:19.385Z,2.09
2022-11-24T09:23:50.824Z,2.03
2022-11-24T09:26:27.159Z,2.10
2022-11-24T09:28:58.594Z,2.10
2022-11-24T09:31:34.524Z,1.86
2022-11-24T09:34:08.109Z,1.99
2022-11-24T09:36:38.329Z,1.96
2022-11-24T09:39:08.465Z,2.11
2022-11-24T09:42:03.033Z,2.14
2022-11-24T09:45:02.086Z,2.14
2022-11-24T09:47:42.590Z,2.14
2022-11-24T09:50:21.076Z,2.16
2022-11-24T09:53:06.280Z,2.13
2022-11-24T09:55:44.859Z,2.09
2022-11-24T09:58:30.462Z,2.19
2022-11-24T10:01:00.923Z,2.25
2022-11-24T10:03:44.068Z,2.27
2022-11-24T10:06:33.160Z,2.23
2022-11-24T10:09:15.532Z,2.27
2022-11-24T10:12:22.481Z,2.31
2022-11-24T10:14:55.396Z,2.35
2022-11-24T10:17:46.980Z,2.38
2022-11-24T10:20:30.967Z,2.37
2022-11-24T10:23:23.002Z,2.40
2022-11-24T10:26:00.962Z,2.40
2022-11-24T10:28:47.210Z,2.34
2022-11-24T10:31:36.595Z,2.41
2022-11-24T10:34:21.325Z,2.40
2022-11-24T10:37:06.629Z,2.44
2022-11-24T10:39:42.533Z,2.46
2022-11-24T10:42:24.980Z,2.43
2022-11-24T10:45:04.255Z,2.49
2022-11-24T10:47:34.415Z,2.42
2022-11-24T10:50:21.628Z,2.52
2022-11-24T10:53:14.627Z,2.56
2022-11-24T10:55:56.957Z,2.52
2022-11-24T10:58:37.302Z,2.52
2022-11-24T11:01:15.056Z,2.52
2022-11-24T11:03:51.977Z,2.30
2022-11-24T11:06:30.912Z,2.43
2022-11-24T11:09:07.428Z,2.61
2022-11-24T11:11:41.850Z,2.51
2022-11-24T11:14:13.254Z,2.43
2022-11-24T11:16:53.775Z,2.64
2022-11-24T11:19:50.925Z,2.67
2022-11-24T11:22:29.052Z,2.68
2022-11-24T11:25:32.305Z,2.55
2022-11-24T11:28:31.903Z,2.64
2022-11-24T11:31:22.711Z,2.63
2022-11-24T11:34:23.241Z,2.55
2022-11-24T11:37:08.960Z,2.53
2022-11-24T11:39:48.697Z,2.64
2022-11-24T11:45:36.287Z,2.63
2022-11-24T11:48:43.360Z,2.66
2022-11-24T11:54:25.771Z,2.68
2022-11-24T11:57:42.399Z,2.64
2022-11-24T12:00:20.453Z,2.70
2022-11-24T12:03:36.483Z,2.64
2022-11-24T12:06:09.587Z,2.76
2022-11-24T12:09:18.687Z,2.67
2022-11-24T12:12:06.047Z,2.75
2022-11-24T12:14:45.333Z,2.73
2022-11-24T12:17:48.775Z,2.70
2022-11-24T12:20:33.509Z,2.62
2022-11-24T12:23:22.543Z,2.74
2022-11-24T12:25:58.421Z,2.75
2022-11-24T12:29:00.831Z,2.77
2022-11-24T12:31:46.634Z,2.69
2022-11-24T12:34:44.485Z,2.75
2022-11-24T12:37:29.920Z,2.69
2022-11-24T12:40:18.074Z,2.32
2022-11-24T12:43:18.966Z,2.67
2022-11-24T12:46:17.605Z,2.66
2022-11-24T12:49:14.667Z,2.62
2022-11-24T12:51:54.686Z,2.58
2022-11-24T12:54:26.494Z,2.49
2022-11-24T12:57:07.751Z,2.48
2022-11-24T12:59:45.395Z,2.48
2022-11-24T13:02:47.883Z,2.55
2022-11-24T13:05:26.198Z,2.56
2022-11-24T13:07:58.685Z,2.50
2022-11-24T13:10:54.862Z,2.52
2022-11-24T13:13:26.884Z,2.50
2022-11-24T13:19:00.593Z,2.40
2022-11-24T13:21:43.135Z,2.40
2022-11-24T13:27:16.074Z,2.34
2022-11-24T13:29:48.067Z,2.44
2022-11-24T13:32:21.378Z,2.44
2022-11-24T13:34:55.241Z,2.40
2022-11-24T13:37:31.116Z,2.43
2022-11-24T13:40:11.642Z,2.43
2022-11-24T13:43:01.606Z,2.44
2022-11-24T13:45:45.289Z,2.45
2022-11-24T13:48:22.589Z,2.46
2022-11-24T13:50:58.745Z,2.42
2022-11-24T13:53:40.612Z,2.42
2022-11-24T13:56:13.566Z,2.46
2022-11-24T13:58:50.069Z,2.35
2022-11-24T14:01:30.767Z,2.45
2022-11-24T14:04:33.659Z,2.45
2022-11-24T14:07:11.280Z,2.25
2022-11-24T14:09:48.411Z,2.14
2022-11-24T14:12:24.121Z,2.36
2022-11-24T14:14:57.500Z,2.43
2022-11-24T14:17:28.780Z,2.42
2022-11-24T14:19:59.045Z,2.29
2022-11-24T14:22:36.891Z,2.38
2022-11-24T14:25:30.891Z,2.30
2022-11-24T14:28:01.277Z,2.23
2022-11-24T14:30:31.483Z,2.40
2022-11-24T14:33:04.021Z,2.09
2022-11-24T14:35:36.162Z,2.31
2022-11-24T14:38:06.640Z,2.21
2022-11-24T14:40:46.793Z,2.23
2022-11-24T14:43:27.004Z,2.19
2022-11-24T14:46:18.578Z,2.18
2022-11-24T14:48:51.384Z,2.30
2022-11-24T14:51:25.012Z,2.31
2022-11-24T14:54:02.112Z,2.32
2022-11-24T14:56:33.341Z,2.34
2022-11-24T14:59:04.828Z,2.29
2022-11-24T15:01:36.373Z,2.22
2022-11-24T15:04:32.531Z,2.28
2022-11-24T15:07:27.684Z,2.26
2022-11-24T15:10:03.204Z,2.28
2022-11-24T15:12:35.998Z,2.26
2022-11-24T15:15:15.276Z,1.99
2022-11-24T15:17:51.309Z,1.99
2022-11-24T15:20:42.473Z,2.29
2022-11-24T15:23:28.266Z,2.28
2022-11-24T15:26:18.272Z,2.29
2022-11-24T15:28:50.456Z,2.24
2022-11-24T15:31:25.002Z,2.04
2022-11-24T15:33:55.352Z,2.20
2022-11-24T15:36:25.495Z,2.05
2022-11-24T15:38:55.637Z,1.95
2022-11-24T15:41:31.396Z,2.19
2022-11-24T15:44:03.372Z,2.18
2022-11-24T15:46:38.866Z,1.82
2022-11-24T15:49:09.261Z,2.10
2022-11-24T15:51:43.939Z,2.25
2022-11-24T15:54:16.197Z,2.27
2022-11-24T15:56:47.216Z,2.21
2022-11-24T15:59:21.238Z,2.26
2022-11-24T16:01:52.426Z,2.21
2022-11-24T16:04:22.716Z,2.22
2022-11-24T16:06:52.971Z,2.16
2022-11-24T16:09:23.130Z,2.16
2022-11-24T16:11:53.341Z,2.21
2022-11-24T16:14:23.573Z,2.18
2022-11-24T16:16:53.759Z,2.14
2022-11-24T16:19:23.969Z,2.24
2022-11-24T16:21:54.175Z,2.23
2022-11-24T16:24:24.342Z,2.23
2022-11-24T16:26:55.517Z,2.16
2022-11-24T16:29:25.869Z,2.25
2022-11-24T16:31:56.023Z,2.26
2022-11-24T16:34:26.285Z,2.26
2022-11-24T16:36:56.413Z,2.25
2022-11-24T16:39:26.983Z,2.27
2022-11-24T16:41:57.123Z,2.10
2022-11-24T16:44:27.356Z,2.15
2022-11-24T16:46:57.633Z,2.20
2022-11-24T16:49:27.844Z,1.99
2022-11-24T16:51:58.030Z,2.12
2022-11-24T16:54:28.223Z,2.08
2022-11-24T16:56:58.738Z,2.19
2022-11-24T16:59:29.246Z,1.99
2022-11-24T17:01:59.671Z,2.05
2022-11-24T17:04:29.849Z,2.22
2022-11-24T17:07:00.212Z,2.09
2022-11-24T17:09:30.287Z,2.14
2022-11-24T17:12:00.490Z,2.28
2022-11-24T17:14:30.608Z,2.26
2022-11-24T17:17:01.217Z,2.17
2022-11-24T17:19:32.089Z,2.04
2022-11-24T17:22:02.234Z,1.99
2022-11-24T17:24:32.462Z,2.01
2022-11-24T17:27:02.813Z,2.06
2022-11-24T17:29:32.893Z,1.98
2022-11-24T17:32:03.079Z,2.16
2022-11-24T17:34:33.591Z,2.09
2022-11-24T17:37:03.995Z,2.07
2022-11-24T17:39:34.068Z,1.90
2022-11-24T17:42:04.844Z,1.99
2022-11-24T17:44:35.251Z,2.14
2022-11-24T17:47:05.530Z,2.20
2022-11-24T17:49:35.974Z,2.22
2022-11-24T17:52:08.884Z,2.22
2022-11-24T17:54:57.352Z,2.13
2022-11-24T17:57:28.591Z,1.92
2022-11-24T17:59:58.753Z,2.13
2022-11-24T18:02:28.993Z,2.03
2022-11-24T18:04:59.217Z,2.19
2022-11-24T18:07:29.419Z,2.21
2022-11-24T18:09:59.571Z,2.22
2022-11-24T18:12:29.710Z,2.24
2022-11-24T18:15:00.160Z,2.25
2022-11-24T18:17:30.489Z,2.25
2022-11-24T18:20:00.620Z,2.16
2022-11-24T18:22:57.687Z,2.10
2022-11-24T18:25:20.901Z,2.00
2022-11-24T18:27:51.043Z,1.82
2022-11-24T18:30:21.369Z,1.53
2022-11-24T18:32:51.510Z,1.76
2022-11-24T18:35:21.666Z,1.83
2022-11-24T18:37:51.699Z,1.80
2022-11-24T18:40:22.048Z,1.86
2022-11-24T18:42:52.484Z,1.93
2022-11-24T18:45:22.582Z,1.89
2022-11-24T18:47:52.768Z,1.97
2022-11-24T18:50:23.244Z,2.01
2022-11-24T18:52:53.357Z,2.02
2022-11-24T18:55:25.992Z,2.07
2022-11-24T18:57:57.442Z,2.13
2022-11-24T19:00:27.607Z,2.15
2022-11-24T19:02:57.843Z,2.05
2022-11-24T19:05:27.979Z,2.18
2022-11-24T19:07:58.270Z,2.09
2022-11-24T19:10:28.364Z,2.01
2022-11-24T19:12:58.515Z,2.15
2022-11-24T19:15:34.244Z,2.22
2022-11-24T19:18:04.610Z,2.19
2022-11-24T19:20:35.522Z,2.14
2022-11-24T19:23:05.839Z,2.20
2022-11-24T19:25:35.941Z,2.11
2022-11-24T19:28:06.194Z,2.26
2022-11-24T19:30:36.279Z,2.18
2022-11-24T19:33:09.572Z,2.19
2022-11-24T19:35:39.749Z,2.21
2022-11-24T19:38:13.619Z,2.27
2022-11-24T19:40:45.102Z,2.28
2022-11-24T19:43:15.201Z,2.27
2022-11-24T19:45:45.413Z,2.28
2022-11-24T19:48:15.654Z,2.23
2022-11-24T19:50:46.257Z,2.28
2022-11-24T19:53:16.372Z,2.26
2022-11-24T19:55:46.596Z,1.98
2022-11-24T19:58:16.761Z,2.12
2022-11-24T20:00:46.889Z,2.26
2022-11-24T20:03:17.118Z,2.19
2022-11-24T20:05:58.610Z,2.23
2022-11-24T20:08:31.276Z,2.12
2022-11-24T20:11:07.114Z,2.28
2022-11-24T20:13:39.239Z,2.28
2022-11-24T20:16:13.349Z,2.22
2022-11-24T20:18:45.554Z,2.22
2022-11-24T20:21:18.815Z,2.21
2022-11-24T20:23:58.021Z,2.25
2022-11-24T20:26:39.318Z,2.25
2022-11-24T20:29:12.625Z,2.29
2022-11-24T20:31:48.454Z,2.27
2022-11-24T20:34:20.790Z,2.27
2022-11-24T20:36:53.367Z,2.18
2022-11-24T20:39:27.252Z,2.16
2022-11-24T20:41:57.347Z,2.21
2022-11-24T20:44:30.301Z,2.23
2022-11-24T20:47:01.425Z,2.28
2022-11-24T20:49:32.425Z,2.25
2022-11-24T20:52:02.691Z,2.26
2022-11-24T20:54:33.218Z,2.17
2022-11-24T20:57:03.693Z,2.20
2022-11-24T20:59:33.908Z,2.28
2022-11-24T21:02:04.128Z,2.29
2022-11-24T21:04:36.596Z,2.27
2022-11-24T21:07:07.956Z,2.30
2022-11-24T21:09:38.429Z,2.22
2022-11-24T21:12:08.551Z,2.31
2022-11-24T21:14:39.394Z,2.25
2022-11-24T21:17:10.365Z,2.25
2022-11-24T21:19:40.489Z,2.28
2022-11-24T21:22:10.654Z,2.28
2022-11-24T21:24:41.258Z,2.01
2022-11-24T21:27:11.495Z,2.28
2022-11-24T21:29:42.339Z,2.14
2022-11-24T21:32:12.557Z,2.29
2022-11-24T21:34:42.711Z,2.27
2022-11-24T21:37:13.663Z,2.26
2022-11-24T21:39:44.806Z,2.28
2022-11-24T21:42:15.120Z,2.19
2022-11-24T21:44:46.157Z,2.11
2022-11-24T21:47:16.471Z,2.24
2022-11-24T21:49:46.840Z,2.20
2022-11-24T21:52:17.172Z,2.17
2022-11-24T21:54:47.844Z,2.11
2022-11-24T21:57:18.123Z,2.18
2022-11-24T21:59:48.313Z,2.20
2022-11-24T22:02:18.741Z,2.21
2022-11-24T22:04:49.148Z,2.25
2022-11-24T22:07:19.456Z,2.12
2022-11-24T22:09:50.060Z,2.15
2022-11-24T22:12:20.209Z,2.20
2022-11-24T22:14:50.485Z,2.19
2022-11-24T22:17:20.980Z,2.08
2022-11-24T22:19:51.264Z,2.10
2022-11-24T22:22:21.925Z,1.90
2022-11-24T22:24:52.249Z,1.94
2022-11-24T22:27:22.603Z,1.99
2022-11-24T22:29:54.324Z,1.93
2022-11-24T22:32:24.700Z,1.97
2022-11-24T22:34:55.136Z,1.95
2022-11-24T22:37:25.265Z,1.94
2022-11-24T22:39:55.435Z,2.00
2022-11-24T22:42:26.417Z,2.09
2022-11-24T22:44:56.568Z,1.97
2022-11-24T22:47:26.720Z,1.96
2022-11-24T22:49:56.966Z,1.97
2022-11-24T22:52:27.161Z,2.06
2022-11-24T22:55:00.751Z,1.95
2022-11-24T22:57:30.950Z,1.99
2022-11-24T23:00:01.049Z,2.04
2022-11-24T23:02:31.860Z,2.03
2022-11-24T23:05:02.355Z,1.94
2022-11-24T23:07:32.539Z,1.70
2022-11-24T23:10:03.720Z,2.08
2022-11-24T23:12:33.910Z,2.11
2022-11-24T23:15:04.424Z,2.12
2022-11-24T23:17:34.650Z,2.17
2022-11-24T23:20:05.406Z,2.10
2022-11-24T23:22:35.984Z,2.21
2022-11-24T23:25:06.384Z,2.23
2022-11-24T23:27:36.617Z,2.23
2022-11-24T23:30:07.464Z,2.19
2022-11-24T23:32:37.915Z,2.21
2022-11-24T23:35:13.482Z,2.14
2022-11-24T23:38:06.612Z,2.16
2022-11-24T23:40:34.509Z,2.20
2022-11-24T23:43:04.746Z,2.18
2022-11-24T23:45:34.973Z,2.18
2022-11-24T23:48:05.495Z,2.12
2022-11-24T23:50:35.801Z,2.16
2022-11-24T23:53:05.947Z,2.14
2022-11-24T23:55:36.132Z,2.16
2022-11-24T23:58:07.371Z,2.16
